| Date | Time | Temp. (oF) | Dew Point (oF) | Rel. Hum. (%) | Press. (in.) | Wind Dir. | Wind Speed (mph) | Hourly Rainfall (in.) |
|
|---|---|---|---|---|---|---|---|---|---|
| 1 | 06/27 | 00:00 | 69 | 56 | 65 | 30.11 | SE | 3 | 0.00 |
| 2 | 06/26 | 23:00 | 71 | 57 | 62 | 30.13 | SW | 2 | 0.00 |
| 3 | 06/26 | 22:00 | 72 | 58 | 62 | 30.13 | S | 5 | 0.00 |
| 4 | 06/26 | 21:00 | 73 | 59 | 62 | 30.12 | S | 5 | 0.00 |
| 5 | 06/26 | 20:00 | 76 | 60 | 58 | 30.12 | SSW | 6 | 0.00 |
| 6 | 06/26 | 19:00 | 78 | 61 | 57 | 30.11 | SSE | 7 | 0.00 |
| 7 | 06/26 | 18:00 | 80 | 61 | 53 | 30.11 | SSE | 6 | 0.00 |
| 8 | 06/26 | 17:00 | 80 | 60 | 52 | 30.12 | E | 2 | 0.00 |
| 9 | 06/26 | 16:00 | 81 | 60 | 50 | 30.14 | SSE | 6 | 0.00 |
| 10 | 06/26 | 15:00 | 81 | 58 | 47 | 30.15 | SSW | 3 | 0.00 |
| 11 | 06/26 | 14:00 | 80 | 57 | 46 | 30.17 | S | 3 | 0.00 |
| 12 | 06/26 | 13:00 | 78 | 55 | 47 | 30.19 | S | 7 | 0.00 |
| 13 | 06/26 | 12:00 | 78 | 60 | 56 | 30.21 | SE | 4 | 0.00 |
| 14 | 06/26 | 11:00 | 74 | 57 | 57 | 30.21 | NE | 3 | 0.00 |
| 15 | 06/26 | 10:00 | 71 | 55 | 59 | 30.23 | SSE | 2 | 0.00 |
| 16 | 06/26 | 09:00 | 66 | 55 | 69 | 30.23 | NE | 2 | 0.00 |
| 17 | 06/26 | 08:00 | 60 | 56 | 87 | 30.23 | N | 1 | 0.00 |
| 18 | 06/26 | 07:00 | 55 | 53 | 94 | 30.23 | N | 0 | 0.00 |
| 19 | 06/26 | 06:00 | 54 | 52 | 94 | 30.22 | N | 0 | 0.00 |
| 20 | 06/26 | 05:00 | 54 | 51 | 91 | 30.20 | N | 1 | 0.00 |
| 21 | 06/26 | 04:00 | 55 | 52 | 90 | 30.19 | N | 0 | 0.00 |
| 22 | 06/26 | 03:00 | 57 | 52 | 84 | 30.19 | N | 1 | 0.00 |
| 23 | 06/26 | 02:00 | 58 | 52 | 82 | 30.19 | N | 1 | 0.00 |
| 24 | 06/26 | 01:00 | 60 | 50 | 71 | 30.17 | N | 1 | 0.00 |